sensor_id;sensor_type;location;lat;lon;timestamp;temperature;humidity
20558;DHT22;10437;48.156;11.530;2022-09-27T00:00:40;11.90;99.90
20558;DHT22;10437;48.156;11.530;2022-09-27T00:05:35;12.00;99.90
20558;DHT22;10437;48.156;11.530;2022-09-27T00:08:03;11.80;99.90
20558;DHT22;10437;48.156;11.530;2022-09-27T00:15:25;11.80;99.90
20558;DHT22;10437;48.156;11.530;2022-09-27T00:20:20;11.90;99.90
20558;DHT22;10437;48.156;11.530;2022-09-27T00:22:48;11.80;99.90
20558;DHT22;10437;48.156;11.530;2022-09-27T00:25:16;11.80;99.90
20558;DHT22;10437;48.156;11.530;2022-09-27T00:27:43;12.00;99.90
20558;DHT22;10437;48.156;11.530;2022-09-27T00:30:11;11.90;99.90
20558;DHT22;10437;48.156;11.530;2022-09-27T00:35:06;12.00;99.90
20558;DHT22;10437;48.156;11.530;2022-09-27T00:37:33;12.10;99.90
20558;DHT22;10437;48.156;11.530;2022-09-27T00:40:00;11.90;99.90
20558;DHT22;10437;48.156;11.530;2022-09-27T00:42:29;11.50;99.90
20558;DHT22;10437;48.156;11.530;2022-09-27T00:45:03;12.00;99.90
20558;DHT22;10437;48.156;11.530;2022-09-27T00:47:34;11.90;99.90
20558;DHT22;10437;48.156;11.530;2022-09-27T00:50:06;12.10;99.90
20558;DHT22;10437;48.156;11.530;2022-09-27T00:52:40;12.00;99.90
20558;DHT22;10437;48.156;11.530;2022-09-27T00:55:12;11.90;99.90
20558;DHT22;10437;48.156;11.530;2022-09-27T00:57:43;12.00;99.90
20558;DHT22;10437;48.156;11.530;2022-09-27T01:00:12;11.70;99.90
20558;DHT22;10437;48.156;11.530;2022-09-27T01:02:42;11.60;99.90
20558;DHT22;10437;48.156;11.530;2022-09-27T01:05:11;11.60;99.90
20558;DHT22;10437;48.156;11.530;2022-09-27T01:10:07;11.40;99.90
20558;DHT22;10437;48.156;11.530;2022-09-27T01:12:48;11.60;99.90
20558;DHT22;10437;48.156;11.530;2022-09-27T01:15:24;11.50;99.90
20558;DHT22;10437;48.156;11.530;2022-09-27T01:18:04;11.40;99.90
20558;DHT22;10437;48.156;11.530;2022-09-27T01:20:51;11.80;99.90
20558;DHT22;10437;48.156;11.530;2022-09-27T01:23:53;11.50;99.90
20558;DHT22;10437;48.156;11.530;2022-09-27T01:26:40;11.60;99.90
20558;DHT22;10437;48.156;11.530;2022-09-27T01:29:12;11.40;99.90
20558;DHT22;10437;48.156;11.530;2022-09-27T01:31:49;11.50;99.90
20558;DHT22;10437;48.156;11.530;2022-09-27T01:34:24;11.70;99.90
20558;DHT22;10437;48.156;11.530;2022-09-27T01:36:55;11.20;99.90
20558;DHT22;10437;48.156;11.530;2022-09-27T01:39:33;11.50;99.90
20558;DHT22;10437;48.156;11.530;2022-09-27T01:42:09;11.50;99.90
20558;DHT22;10437;48.156;11.530;2022-09-27T01:44:42;11.30;99.90
20558;DHT22;10437;48.156;11.530;2022-09-27T01:47:15;11.30;99.90
20558;DHT22;10437;48.156;11.530;2022-09-27T01:49:48;11.20;99.90
20558;DHT22;10437;48.156;11.530;2022-09-27T01:52:21;11.10;99.90
20558;DHT22;10437;48.156;11.530;2022-09-27T01:54:52;11.20;99.90
20558;DHT22;10437;48.156;11.530;2022-09-27T01:57:24;12.30;99.90
20558;DHT22;10437;48.156;11.530;2022-09-27T01:59:54;11.30;99.90
20558;DHT22;10437;48.156;11.530;2022-09-27T02:02:26;11.30;99.90
20558;DHT22;10437;48.156;11.530;2022-09-27T02:04:55;10.90;99.90
20558;DHT22;10437;48.156;11.530;2022-09-27T02:07:27;10.90;99.90
20558;DHT22;10437;48.156;11.530;2022-09-27T02:09:58;11.00;99.90
20558;DHT22;10437;48.156;11.530;2022-09-27T02:12:29;10.70;99.90
20558;DHT22;10437;48.156;11.530;2022-09-27T02:15:00;10.90;99.90
20558;DHT22;10437;48.156;11.530;2022-09-27T02:17:36;10.90;99.90
20558;DHT22;10437;48.156;11.530;2022-09-27T02:20:10;11.10;99.90
20558;DHT22;10437;48.156;11.530;2022-09-27T02:22:41;10.90;99.90
20558;DHT22;10437;48.156;11.530;2022-09-27T02:25:15;10.90;99.90
20558;DHT22;10437;48.156;11.530;2022-09-27T02:27:51;11.30;99.90
20558;DHT22;10437;48.156;11.530;2022-09-27T02:30:19;11.40;99.90
20558;DHT22;10437;48.156;11.530;2022-09-27T02:32:47;10.80;99.90
20558;DHT22;10437;48.156;11.530;2022-09-27T02:35:17;10.90;99.90
20558;DHT22;10437;48.156;11.530;2022-09-27T02:37:45;11.00;99.90
20558;DHT22;10437;48.156;11.530;2022-09-27T02:40:12;10.90;99.90
20558;DHT22;10437;48.156;11.530;2022-09-27T02:42:41;10.90;99.90
20558;DHT22;10437;48.156;11.530;2022-09-27T02:45:10;12.30;99.90
20558;DHT22;10437;48.156;11.530;2022-09-27T02:47:50;10.90;99.90
20558;DHT22;10437;48.156;11.530;2022-09-27T02:50:40;10.90;99.90
20558;DHT22;10437;48.156;11.530;2022-09-27T02:53:17;10.50;99.90
20558;DHT22;10437;48.156;11.530;2022-09-27T02:55:52;10.60;99.90
20558;DHT22;10437;48.156;11.530;2022-09-27T02:58:29;10.80;99.90
20558;DHT22;10437;48.156;11.530;2022-09-27T03:01:03;10.70;99.90
20558;DHT22;10437;48.156;11.530;2022-09-27T03:03:41;10.70;99.90
20558;DHT22;10437;48.156;11.530;2022-09-27T03:06:13;10.70;99.90
20558;DHT22;10437;48.156;11.530;2022-09-27T03:08:42;10.50;99.90
20558;DHT22;10437;48.156;11.530;2022-09-27T03:13:37;10.60;99.90
20558;DHT22;10437;48.156;11.530;2022-09-27T03:16:04;11.50;99.90
20558;DHT22;10437;48.156;11.530;2022-09-27T03:18:31;10.50;99.90
20558;DHT22;10437;48.156;11.530;2022-09-27T03:21:00;10.70;99.90
20558;DHT22;10437;48.156;11.530;2022-09-27T03:23:27;10.60;99.90
20558;DHT22;10437;48.156;11.530;2022-09-27T03:28:22;10.70;99.90
20558;DHT22;10437;48.156;11.530;2022-09-27T03:30:50;10.40;99.90
20558;DHT22;10437;48.156;11.530;2022-09-27T03:33:17;10.60;99.90
20558;DHT22;10437;48.156;11.530;2022-09-27T03:38:13;10.70;99.90
20558;DHT22;10437;48.156;11.530;2022-09-27T03:40:40;10.60;99.90
20558;DHT22;10437;48.156;11.530;2022-09-27T03:43:07;10.30;99.90
20558;DHT22;10437;48.156;11.530;2022-09-27T03:45:34;10.10;99.90
20558;DHT22;10437;48.156;11.530;2022-09-27T03:50:29;10.60;99.90
20558;DHT22;10437;48.156;11.530;2022-09-27T03:52:55;10.70;99.90
20558;DHT22;10437;48.156;11.530;2022-09-27T03:55:24;10.40;99.90
20558;DHT22;10437;48.156;11.530;2022-09-27T03:57:50;10.60;99.90
20558;DHT22;10437;48.156;11.530;2022-09-27T04:00:18;10.60;99.90
20558;DHT22;10437;48.156;11.530;2022-09-27T04:02:45;10.50;99.90
20558;DHT22;10437;48.156;11.530;2022-09-27T04:05:12;10.60;99.90
20558;DHT22;10437;48.156;11.530;2022-09-27T04:07:39;10.60;99.90
20558;DHT22;10437;48.156;11.530;2022-09-27T04:10:06;10.60;99.90
20558;DHT22;10437;48.156;11.530;2022-09-27T04:12:34;10.70;99.90
20558;DHT22;10437;48.156;11.530;2022-09-27T04:15:01;10.60;99.90
20558;DHT22;10437;48.156;11.530;2022-09-27T04:19:55;10.70;99.90
20558;DHT22;10437;48.156;11.530;2022-09-27T04:22:22;10.80;99.90
20558;DHT22;10437;48.156;11.530;2022-09-27T04:24:49;10.60;99.90
20558;DHT22;10437;48.156;11.530;2022-09-27T04:29:44;11.10;99.90
20558;DHT22;10437;48.156;11.530;2022-09-27T04:32:12;10.80;99.90
20558;DHT22;10437;48.156;11.530;2022-09-27T04:34:39;10.40;99.90
20558;DHT22;10437;48.156;11.530;2022-09-27T04:37:24;10.90;99.90
20558;DHT22;10437;48.156;11.530;2022-09-27T04:39:52;10.80;99.90
20558;DHT22;10437;48.156;11.530;2022-09-27T04:42:19;10.80;99.90
20558;DHT22;10437;48.156;11.530;2022-09-27T04:44:47;10.80;99.90
20558;DHT22;10437;48.156;11.530;2022-09-27T04:47:14;10.60;99.90
20558;DHT22;10437;48.156;11.530;2022-09-27T04:49:41;10.90;99.90
20558;DHT22;10437;48.156;11.530;2022-09-27T04:52:08;10.90;99.90
20558;DHT22;10437;48.156;11.530;2022-09-27T04:54:35;10.80;99.90
20558;DHT22;10437;48.156;11.530;2022-09-27T04:57:02;10.80;99.90
20558;DHT22;10437;48.156;11.530;2022-09-27T05:01:58;10.90;99.90
20558;DHT22;10437;48.156;11.530;2022-09-27T05:06:53;10.60;99.90
20558;DHT22;10437;48.156;11.530;2022-09-27T05:14:14;10.60;99.90
20558;DHT22;10437;48.156;11.530;2022-09-27T05:16:41;10.80;99.90
20558;DHT22;10437;48.156;11.530;2022-09-27T05:19:10;10.80;99.90
20558;DHT22;10437;48.156;11.530;2022-09-27T05:21:37;10.60;99.90
20558;DHT22;10437;48.156;11.530;2022-09-27T05:24:04;10.40;99.90
20558;DHT22;10437;48.156;11.530;2022-09-27T05:28:58;10.70;99.90
20558;DHT22;10437;48.156;11.530;2022-09-27T05:36:22;10.60;99.90
20558;DHT22;10437;48.156;11.530;2022-09-27T05:38:49;10.70;99.90
20558;DHT22;10437;48.156;11.530;2022-09-27T05:53:35;10.80;99.90
20558;DHT22;10437;48.156;11.530;2022-09-27T05:56:02;10.70;99.90
20558;DHT22;10437;48.156;11.530;2022-09-27T05:58:29;10.80;99.90
20558;DHT22;10437;48.156;11.530;2022-09-27T06:00:56;8.30;99.90
20558;DHT22;10437;48.156;11.530;2022-09-27T06:10:47;10.70;99.90
20558;DHT22;10437;48.156;11.530;2022-09-27T06:13:15;10.60;99.90
20558;DHT22;10437;48.156;11.530;2022-09-27T06:15:43;10.70;99.90
20558;DHT22;10437;48.156;11.530;2022-09-27T06:18:13;10.30;99.90
20558;DHT22;10437;48.156;11.530;2022-09-27T06:23:10;10.60;99.90
20558;DHT22;10437;48.156;11.530;2022-09-27T06:25:38;10.40;99.90
20558;DHT22;10437;48.156;11.530;2022-09-27T06:28:07;10.50;99.90
20558;DHT22;10437;48.156;11.530;2022-09-27T06:30:37;10.50;99.90
20558;DHT22;10437;48.156;11.530;2022-09-27T06:35:34;12.40;99.90
20558;DHT22;10437;48.156;11.530;2022-09-27T06:38:02;10.50;99.90
20558;DHT22;10437;48.156;11.530;2022-09-27T06:43:01;10.70;99.90
20558;DHT22;10437;48.156;11.530;2022-09-27T06:45:31;10.70;99.90
20558;DHT22;10437;48.156;11.530;2022-09-27T06:52:55;10.70;99.90
20558;DHT22;10437;48.156;11.530;2022-09-27T06:55:22;10.80;99.90
20558;DHT22;10437;48.156;11.530;2022-09-27T07:00:35;10.80;99.90
20558;DHT22;10437;48.156;11.530;2022-09-27T07:05:29;11.30;99.90
20558;DHT22;10437;48.156;11.530;2022-09-27T07:07:57;11.50;99.90
20558;DHT22;10437;48.156;11.530;2022-09-27T07:10:26;11.20;99.90
20558;DHT22;10437;48.156;11.530;2022-09-27T07:15:21;11.50;99.90
20558;DHT22;10437;48.156;11.530;2022-09-27T07:17:56;11.20;99.90
20558;DHT22;10437;48.156;11.530;2022-09-27T07:22:51;11.30;99.90
20558;DHT22;10437;48.156;11.530;2022-09-27T07:25:18;12.00;99.90
20558;DHT22;10437;48.156;11.530;2022-09-27T07:27:45;11.10;99.90
20558;DHT22;10437;48.156;11.530;2022-09-27T07:30:13;11.40;99.90
20558;DHT22;10437;48.156;11.530;2022-09-27T07:35:10;11.40;99.90
20558;DHT22;10437;48.156;11.530;2022-09-27T07:37:39;11.20;99.90
20558;DHT22;10437;48.156;11.530;2022-09-27T07:40:08;11.30;99.90
20558;DHT22;10437;48.156;11.530;2022-09-27T07:45:04;11.50;99.90
20558;DHT22;10437;48.156;11.530;2022-09-27T07:47:31;12.00;99.90
20558;DHT22;10437;48.156;11.530;2022-09-27T07:52:27;11.80;99.90
20558;DHT22;10437;48.156;11.530;2022-09-27T07:54:54;12.00;99.90
20558;DHT22;10437;48.156;11.530;2022-09-27T07:57:21;12.30;99.90
20558;DHT22;10437;48.156;11.530;2022-09-27T08:02:16;13.20;99.90
20558;DHT22;10437;48.156;11.530;2022-09-27T08:04:43;13.00;99.90
20558;DHT22;10437;48.156;11.530;2022-09-27T08:07:12;13.40;99.90
20558;DHT22;10437;48.156;11.530;2022-09-27T08:09:40;13.10;99.90
20558;DHT22;10437;48.156;11.530;2022-09-27T08:26:53;11.00;99.90
20558;DHT22;10437;48.156;11.530;2022-09-27T08:31:49;10.90;99.90
20558;DHT22;10437;48.156;11.530;2022-09-27T08:34:16;10.80;99.90
20558;DHT22;10437;48.156;11.530;2022-09-27T08:41:40;10.30;99.90
20558;DHT22;10437;48.156;11.530;2022-09-27T08:44:19;10.70;99.90
20558;DHT22;10437;48.156;11.530;2022-09-27T08:46:54;10.90;99.90
20558;DHT22;10437;48.156;11.530;2022-09-27T08:49:34;10.60;99.90
20558;DHT22;10437;48.156;11.530;2022-09-27T08:52:03;10.90;99.90
20558;DHT22;10437;48.156;11.530;2022-09-27T08:54:34;10.70;99.90
20558;DHT22;10437;48.156;11.530;2022-09-27T08:57:05;11.10;99.90
20558;DHT22;10437;48.156;11.530;2022-09-27T08:59:40;11.30;99.90
20558;DHT22;10437;48.156;11.530;2022-09-27T09:02:15;10.50;99.90
20558;DHT22;10437;48.156;11.530;2022-09-27T09:04:44;11.20;99.90
20558;DHT22;10437;48.156;11.530;2022-09-27T09:07:24;10.90;99.90
20558;DHT22;10437;48.156;11.530;2022-09-27T09:10:00;11.20;99.90
20558;DHT22;10437;48.156;11.530;2022-09-27T09:12:38;11.40;99.90
20558;DHT22;10437;48.156;11.530;2022-09-27T09:15:21;11.40;99.90
20558;DHT22;10437;48.156;11.530;2022-09-27T09:18:14;11.10;99.90
20558;DHT22;10437;48.156;11.530;2022-09-27T09:20:54;11.30;99.90
20558;DHT22;10437;48.156;11.530;2022-09-27T09:23:41;11.30;99.90
20558;DHT22;10437;48.156;11.530;2022-09-27T09:26:17;11.40;99.90
20558;DHT22;10437;48.156;11.530;2022-09-27T09:29:00;11.60;99.90
20558;DHT22;10437;48.156;11.530;2022-09-27T09:31:37;11.80;99.90
20558;DHT22;10437;48.156;11.530;2022-09-27T09:34:11;12.00;99.90
20558;DHT22;10437;48.156;11.530;2022-09-27T09:36:43;11.90;99.90
20558;DHT22;10437;48.156;11.530;2022-09-27T09:39:15;11.90;99.90
20558;DHT22;10437;48.156;11.530;2022-09-27T09:41:52;11.70;99.90
20558;DHT22;10437;48.156;11.530;2022-09-27T09:44:25;11.90;99.90
20558;DHT22;10437;48.156;11.530;2022-09-27T09:46:56;11.80;99.90
20558;DHT22;10437;48.156;11.530;2022-09-27T09:49:32;11.80;99.90
20558;DHT22;10437;48.156;11.530;2022-09-27T09:52:03;11.80;99.90
20558;DHT22;10437;48.156;11.530;2022-09-27T09:54:35;11.80;99.90
20558;DHT22;10437;48.156;11.530;2022-09-27T09:57:07;11.80;99.90
20558;DHT22;10437;48.156;11.530;2022-09-27T09:59:41;11.60;99.90
20558;DHT22;10437;48.156;11.530;2022-09-27T10:02:24;11.80;99.90
20558;DHT22;10437;48.156;11.530;2022-09-27T10:04:52;11.80;99.90
20558;DHT22;10437;48.156;11.530;2022-09-27T10:07:20;11.80;99.90
20558;DHT22;10437;48.156;11.530;2022-09-27T10:14:45;11.70;99.90
20558;DHT22;10437;48.156;11.530;2022-09-27T10:17:17;11.60;99.90
20558;DHT22;10437;48.156;11.530;2022-09-27T10:19:46;11.50;99.90
20558;DHT22;10437;48.156;11.530;2022-09-27T10:22:18;11.50;99.90
20558;DHT22;10437;48.156;11.530;2022-09-27T10:24:56;9.70;99.90
20558;DHT22;10437;48.156;11.530;2022-09-27T10:27:24;11.60;99.90
20558;DHT22;10437;48.156;11.530;2022-09-27T10:29:58;11.60;99.90
20558;DHT22;10437;48.156;11.530;2022-09-27T10:32:30;11.60;99.90
20558;DHT22;10437;48.156;11.530;2022-09-27T10:35:18;11.50;99.90
20558;DHT22;10437;48.156;11.530;2022-09-27T10:40:26;11.60;99.90
20558;DHT22;10437;48.156;11.530;2022-09-27T10:42:53;11.60;99.90
20558;DHT22;10437;48.156;11.530;2022-09-27T10:45:29;11.60;99.90
20558;DHT22;10437;48.156;11.530;2022-09-27T10:47:58;11.10;99.90
20558;DHT22;10437;48.156;11.530;2022-09-27T10:50:28;10.70;99.90
20558;DHT22;10437;48.156;11.530;2022-09-27T10:53:03;11.20;99.90
20558;DHT22;10437;48.156;11.530;2022-09-27T10:55:33;11.10;99.90
20558;DHT22;10437;48.156;11.530;2022-09-27T10:58:01;11.20;99.90
20558;DHT22;10437;48.156;11.530;2022-09-27T11:00:30;11.00;99.90
20558;DHT22;10437;48.156;11.530;2022-09-27T11:03:01;11.30;99.90
20558;DHT22;10437;48.156;11.530;2022-09-27T11:05:31;11.40;99.90
20558;DHT22;10437;48.156;11.530;2022-09-27T11:08:00;11.60;99.90
20558;DHT22;10437;48.156;11.530;2022-09-27T11:10:29;11.90;99.90
20558;DHT22;10437;48.156;11.530;2022-09-27T11:13:11;12.20;99.90
20558;DHT22;10437;48.156;11.530;2022-09-27T11:15:54;12.40;99.90
20558;DHT22;10437;48.156;11.530;2022-09-27T11:18:33;12.40;99.90
20558;DHT22;10437;48.156;11.530;2022-09-27T11:21:10;14.10;99.90
20558;DHT22;10437;48.156;11.530;2022-09-27T11:23:56;12.10;99.90
20558;DHT22;10437;48.156;11.530;2022-09-27T11:26:35;12.00;99.90
20558;DHT22;10437;48.156;11.530;2022-09-27T11:29:19;11.90;99.90
20558;DHT22;10437;48.156;11.530;2022-09-27T11:31:57;11.70;99.90
20558;DHT22;10437;48.156;11.530;2022-09-27T11:34:43;11.70;99.90
20558;DHT22;10437;48.156;11.530;2022-09-27T11:37:22;11.50;99.90
20558;DHT22;10437;48.156;11.530;2022-09-27T11:40:02;11.40;99.90
20558;DHT22;10437;48.156;11.530;2022-09-27T11:42:48;11.20;99.90
20558;DHT22;10437;48.156;11.530;2022-09-27T11:45:28;10.90;99.90
20558;DHT22;10437;48.156;11.530;2022-09-27T11:48:10;11.80;99.90
20558;DHT22;10437;48.156;11.530;2022-09-27T11:50:55;11.00;99.90
20558;DHT22;10437;48.156;11.530;2022-09-27T11:53:46;11.20;99.90
20558;DHT22;10437;48.156;11.530;2022-09-27T11:56:26;11.30;99.90
20558;DHT22;10437;48.156;11.530;2022-09-27T11:59:11;11.30;99.90
20558;DHT22;10437;48.156;11.530;2022-09-27T12:01:49;10.80;99.90
20558;DHT22;10437;48.156;11.530;2022-09-27T12:04:44;11.20;99.90
20558;DHT22;10437;48.156;11.530;2022-09-27T12:07:22;11.20;99.90
20558;DHT22;10437;48.156;11.530;2022-09-27T12:10:01;11.20;99.90
20558;DHT22;10437;48.156;11.530;2022-09-27T12:12:31;11.10;99.90
20558;DHT22;10437;48.156;11.530;2022-09-27T12:15:01;10.80;99.90
20558;DHT22;10437;48.156;11.530;2022-09-27T12:17:32;11.10;99.90
20558;DHT22;10437;48.156;11.530;2022-09-27T12:20:03;10.50;99.90
20558;DHT22;10437;48.156;11.530;2022-09-27T12:22:36;10.30;99.90
20558;DHT22;10437;48.156;11.530;2022-09-27T12:25:04;10.30;99.90
20558;DHT22;10437;48.156;11.530;2022-09-27T12:27:35;10.50;99.90
20558;DHT22;10437;48.156;11.530;2022-09-27T12:30:04;10.30;99.90
20558;DHT22;10437;48.156;11.530;2022-09-27T12:32:34;10.90;99.90
20558;DHT22;10437;48.156;11.530;2022-09-27T12:35:06;11.00;99.90
20558;DHT22;10437;48.156;11.530;2022-09-27T12:37:42;11.40;99.90
20558;DHT22;10437;48.156;11.530;2022-09-27T12:40:15;11.80;99.90
20558;DHT22;10437;48.156;11.530;2022-09-27T12:42:46;13.20;99.90
20558;DHT22;10437;48.156;11.530;2022-09-27T12:45:18;12.20;99.90
20558;DHT22;10437;48.156;11.530;2022-09-27T12:47:57;12.20;99.90
20558;DHT22;10437;48.156;11.530;2022-09-27T12:50:31;11.90;99.90
20558;DHT22;10437;48.156;11.530;2022-09-27T12:53:06;12.00;99.90
20558;DHT22;10437;48.156;11.530;2022-09-27T12:56:08;12.10;99.90
20558;DHT22;10437;48.156;11.530;2022-09-27T13:05:06;12.00;99.90
20558;DHT22;10437;48.156;11.530;2022-09-27T13:07:48;11.80;99.90
20558;DHT22;10437;48.156;11.530;2022-09-27T13:10:37;11.90;99.90
20558;DHT22;10437;48.156;11.530;2022-09-27T13:13:09;11.90;99.90
20558;DHT22;10437;48.156;11.530;2022-09-27T13:15:37;12.20;99.90
20558;DHT22;10437;48.156;11.530;2022-09-27T13:18:16;12.50;99.90
20558;DHT22;10437;48.156;11.530;2022-09-27T13:26:45;11.20;99.90
20558;DHT22;10437;48.156;11.530;2022-09-27T13:29:23;13.40;99.90
20558;DHT22;10437;48.156;11.530;2022-09-27T13:32:14;12.20;99.90
20558;DHT22;10437;48.156;11.530;2022-09-27T13:34:43;13.20;99.90
20558;DHT22;10437;48.156;11.530;2022-09-27T13:37:35;13.10;99.90
20558;DHT22;10437;48.156;11.530;2022-09-27T13:40:22;13.10;99.90
20558;DHT22;10437;48.156;11.530;2022-09-27T13:43:06;13.20;99.90
20558;DHT22;10437;48.156;11.530;2022-09-27T13:45:37;12.90;99.90
20558;DHT22;10437;48.156;11.530;2022-09-27T13:48:11;12.80;99.90
20558;DHT22;10437;48.156;11.530;2022-09-27T13:50:47;12.70;99.90
20558;DHT22;10437;48.156;11.530;2022-09-27T13:53:23;12.50;99.90
20558;DHT22;10437;48.156;11.530;2022-09-27T13:58:38;12.30;99.90
20558;DHT22;10437;48.156;11.530;2022-09-27T14:01:14;12.30;99.90
20558;DHT22;10437;48.156;11.530;2022-09-27T14:03:51;12.20;99.90
20558;DHT22;10437;48.156;11.530;2022-09-27T14:06:21;12.20;99.90
20558;DHT22;10437;48.156;11.530;2022-09-27T14:08:51;12.20;99.90
20558;DHT22;10437;48.156;11.530;2022-09-27T14:11:23;12.10;99.90
20558;DHT22;10437;48.156;11.530;2022-09-27T14:13:53;12.30;99.90
20558;DHT22;10437;48.156;11.530;2022-09-27T14:18:50;12.20;99.90
20558;DHT22;10437;48.156;11.530;2022-09-27T14:21:30;12.00;99.90
20558;DHT22;10437;48.156;11.530;2022-09-27T14:24:26;12.10;99.90
20558;DHT22;10437;48.156;11.530;2022-09-27T14:27:08;12.70;99.90
20558;DHT22;10437;48.156;11.530;2022-09-27T14:29:41;13.90;99.90
20558;DHT22;10437;48.156;11.530;2022-09-27T14:32:10;12.60;99.90
20558;DHT22;10437;48.156;11.530;2022-09-27T14:34:38;12.70;99.90
20558;DHT22;10437;48.156;11.530;2022-09-27T14:40:00;12.50;99.90
20558;DHT22;10437;48.156;11.530;2022-09-27T14:42:32;12.30;99.90
20558;DHT22;10437;48.156;11.530;2022-09-27T14:45:13;12.30;99.90
20558;DHT22;10437;48.156;11.530;2022-09-27T14:47:44;12.10;99.90
20558;DHT22;10437;48.156;11.530;2022-09-27T14:50:18;12.00;99.90
20558;DHT22;10437;48.156;11.530;2022-09-27T14:55:16;11.80;99.90
20558;DHT22;10437;48.156;11.530;2022-09-27T14:57:45;11.70;99.90
20558;DHT22;10437;48.156;11.530;2022-09-27T15:00:19;11.70;99.90
20558;DHT22;10437;48.156;11.530;2022-09-27T15:02:47;11.70;99.90
20558;DHT22;10437;48.156;11.530;2022-09-27T15:05:16;11.50;99.90
20558;DHT22;10437;48.156;11.530;2022-09-27T15:07:44;11.50;99.90
20558;DHT22;10437;48.156;11.530;2022-09-27T15:10:14;11.60;99.90
20558;DHT22;10437;48.156;11.530;2022-09-27T15:12:44;11.80;99.90
20558;DHT22;10437;48.156;11.530;2022-09-27T15:15:14;11.50;99.90
20558;DHT22;10437;48.156;11.530;2022-09-27T15:17:44;11.50;99.90
20558;DHT22;10437;48.156;11.530;2022-09-27T15:20:20;11.50;99.90
20558;DHT22;10437;48.156;11.530;2022-09-27T15:22:49;11.40;99.90
20558;DHT22;10437;48.156;11.530;2022-09-27T15:25:35;11.40;99.90
20558;DHT22;10437;48.156;11.530;2022-09-27T15:28:04;11.10;99.90
20558;DHT22;10437;48.156;11.530;2022-09-27T15:30:37;11.40;99.90
20558;DHT22;10437;48.156;11.530;2022-09-27T15:33:15;11.40;99.90
20558;DHT22;10437;48.156;11.530;2022-09-27T15:35:48;11.40;99.90
20558;DHT22;10437;48.156;11.530;2022-09-27T15:38:23;11.30;99.90
20558;DHT22;10437;48.156;11.530;2022-09-27T15:41:10;11.40;99.90
20558;DHT22;10437;48.156;11.530;2022-09-27T15:43:40;13.20;99.90
20558;DHT22;10437;48.156;11.530;2022-09-27T15:46:30;11.20;99.90
20558;DHT22;10437;48.156;11.530;2022-09-27T15:49:20;11.50;99.90
20558;DHT22;10437;48.156;11.530;2022-09-27T15:51:49;11.50;99.90
20558;DHT22;10437;48.156;11.530;2022-09-27T15:54:18;11.60;99.90
20558;DHT22;10437;48.156;11.530;2022-09-27T15:56:45;11.50;99.90
20558;DHT22;10437;48.156;11.530;2022-09-27T15:59:18;11.30;99.90
20558;DHT22;10437;48.156;11.530;2022-09-27T16:01:46;11.60;99.90
20558;DHT22;10437;48.156;11.530;2022-09-27T16:04:13;11.50;99.90
20558;DHT22;10437;48.156;11.530;2022-09-27T16:06:42;11.10;99.90
20558;DHT22;10437;48.156;11.530;2022-09-27T16:09:13;11.20;99.90
20558;DHT22;10437;48.156;11.530;2022-09-27T16:16:39;10.90;99.90
20558;DHT22;10437;48.156;11.530;2022-09-27T16:24:03;10.80;99.90
20558;DHT22;10437;48.156;11.530;2022-09-27T16:26:30;10.70;99.90
20558;DHT22;10437;48.156;11.530;2022-09-27T16:28:58;10.70;99.90
20558;DHT22;10437;48.156;11.530;2022-09-27T16:31:26;10.70;99.90
20558;DHT22;10437;48.156;11.530;2022-09-27T16:38:48;10.50;99.90
20558;DHT22;10437;48.156;11.530;2022-09-27T16:41:17;10.60;99.90
20558;DHT22;10437;48.156;11.530;2022-09-27T16:46:13;10.30;99.90
20558;DHT22;10437;48.156;11.530;2022-09-27T16:48:43;10.70;99.90
20558;DHT22;10437;48.156;11.530;2022-09-27T16:51:12;10.60;99.90
20558;DHT22;10437;48.156;11.530;2022-09-27T16:56:26;10.70;99.90
20558;DHT22;10437;48.156;11.530;2022-09-27T17:03:49;10.50;99.90
20558;DHT22;10437;48.156;11.530;2022-09-27T17:11:16;10.30;99.90
20558;DHT22;10437;48.156;11.530;2022-09-27T17:13:45;10.40;99.90
20558;DHT22;10437;48.156;11.530;2022-09-27T17:26:06;10.30;99.90
20558;DHT22;10437;48.156;11.530;2022-09-27T17:28:34;10.30;99.90
20558;DHT22;10437;48.156;11.530;2022-09-27T17:31:05;10.30;99.90
20558;DHT22;10437;48.156;11.530;2022-09-27T17:33:35;10.40;99.90
20558;DHT22;10437;48.156;11.530;2022-09-27T17:36:07;10.30;99.90
20558;DHT22;10437;48.156;11.530;2022-09-27T17:38:35;10.30;99.90
20558;DHT22;10437;48.156;11.530;2022-09-27T17:41:04;10.30;99.90
20558;DHT22;10437;48.156;11.530;2022-09-27T17:46:05;10.10;99.90
20558;DHT22;10437;48.156;11.530;2022-09-27T17:51:18;10.20;99.90
20558;DHT22;10437;48.156;11.530;2022-09-27T17:56:14;10.10;99.90
20558;DHT22;10437;48.156;11.530;2022-09-27T17:58:45;10.10;99.90
20558;DHT22;10437;48.156;11.530;2022-09-27T18:01:14;10.20;99.90
20558;DHT22;10437;48.156;11.530;2022-09-27T18:03:42;10.10;99.90
20558;DHT22;10437;48.156;11.530;2022-09-27T18:06:10;10.00;99.90
20558;DHT22;10437;48.156;11.530;2022-09-27T18:11:06;10.20;99.90
20558;DHT22;10437;48.156;11.530;2022-09-27T18:13:33;10.20;99.90
20558;DHT22;10437;48.156;11.530;2022-09-27T18:16:05;10.20;99.90
20558;DHT22;10437;48.156;11.530;2022-09-27T18:18:34;10.40;99.90
20558;DHT22;10437;48.156;11.530;2022-09-27T18:21:04;10.00;99.90
20558;DHT22;10437;48.156;11.530;2022-09-27T18:23:31;10.10;99.90
20558;DHT22;10437;48.156;11.530;2022-09-27T18:25:58;9.90;99.90
20558;DHT22;10437;48.156;11.530;2022-09-27T18:28:27;9.80;99.90
20558;DHT22;10437;48.156;11.530;2022-09-27T18:31:00;9.90;99.90
20558;DHT22;10437;48.156;11.530;2022-09-27T18:38:27;9.60;99.90
20558;DHT22;10437;48.156;11.530;2022-09-27T18:53:12;9.70;99.90
20558;DHT22;10437;48.156;11.530;2022-09-27T18:55:39;9.60;99.90
20558;DHT22;10437;48.156;11.530;2022-09-27T18:58:06;9.60;99.90
20558;DHT22;10437;48.156;11.530;2022-09-27T19:07:58;9.60;99.90
20558;DHT22;10437;48.156;11.530;2022-09-27T19:10:26;9.70;99.90
20558;DHT22;10437;48.156;11.530;2022-09-27T19:12:59;9.70;99.90
20558;DHT22;10437;48.156;11.530;2022-09-27T19:15:29;9.60;99.90
20558;DHT22;10437;48.156;11.530;2022-09-27T19:20:23;9.70;99.90
20558;DHT22;10437;48.156;11.530;2022-09-27T19:25:18;9.70;99.90
20558;DHT22;10437;48.156;11.530;2022-09-27T19:27:46;9.90;99.90
20558;DHT22;10437;48.156;11.530;2022-09-27T19:35:08;9.70;99.90
20558;DHT22;10437;48.156;11.530;2022-09-27T19:40:04;9.60;99.90
20558;DHT22;10437;48.156;11.530;2022-09-27T19:44:59;9.60;99.90
20558;DHT22;10437;48.156;11.530;2022-09-27T19:49:53;9.30;99.90